sensor_id;sensor_type;location;lat;lon;timestamp;temperature;humidity
16643;DHT22;8435;52.184;5.406;2023-08-06T00:00:56;18.20;99.90
16643;DHT22;8435;52.184;5.406;2023-08-06T00:03:23;18.20;99.90
16643;DHT22;8435;52.184;5.406;2023-08-06T00:05:49;18.20;99.90
16643;DHT22;8435;52.184;5.406;2023-08-06T00:08:16;18.20;99.90
16643;DHT22;8435;52.184;5.406;2023-08-06T00:10:43;18.10;99.90
16643;DHT22;8435;52.184;5.406;2023-08-06T00:13:10;18.10;99.90
16643;DHT22;8435;52.184;5.406;2023-08-06T00:15:37;18.10;99.90
16643;DHT22;8435;52.184;5.406;2023-08-06T00:18:05;18.10;99.90
16643;DHT22;8435;52.184;5.406;2023-08-06T00:20:32;18.10;99.90
16643;DHT22;8435;52.184;5.406;2023-08-06T00:22:58;18.10;99.90
16643;DHT22;8435;52.184;5.406;2023-08-06T00:25:25;18.10;99.90
16643;DHT22;8435;52.184;5.406;2023-08-06T00:27:52;18.10;99.90
16643;DHT22;8435;52.184;5.406;2023-08-06T00:30:19;18.10;99.90
16643;DHT22;8435;52.184;5.406;2023-08-06T00:32:46;18.10;99.90
16643;DHT22;8435;52.184;5.406;2023-08-06T00:35:15;18.10;99.90
16643;DHT22;8435;52.184;5.406;2023-08-06T00:37:42;18.10;99.90
16643;DHT22;8435;52.184;5.406;2023-08-06T00:40:11;18.10;99.90
16643;DHT22;8435;52.184;5.406;2023-08-06T00:42:38;18.10;99.90
16643;DHT22;8435;52.184;5.406;2023-08-06T00:45:06;18.10;99.90
16643;DHT22;8435;52.184;5.406;2023-08-06T00:47:33;18.10;99.90
16643;DHT22;8435;52.184;5.406;2023-08-06T00:50:00;18.10;99.90
16643;DHT22;8435;52.184;5.406;2023-08-06T00:52:28;18.10;99.90
16643;DHT22;8435;52.184;5.406;2023-08-06T00:54:57;18.20;99.90
16643;DHT22;8435;52.184;5.406;2023-08-06T00:57:24;18.10;99.90
16643;DHT22;8435;52.184;5.406;2023-08-06T00:59:52;18.10;99.90
16643;DHT22;8435;52.184;5.406;2023-08-06T01:02:20;18.10;99.90
16643;DHT22;8435;52.184;5.406;2023-08-06T01:04:46;18.10;99.90
16643;DHT22;8435;52.184;5.406;2023-08-06T01:07:21;18.10;99.90
16643;DHT22;8435;52.184;5.406;2023-08-06T01:10:00;18.10;99.90
16643;DHT22;8435;52.184;5.406;2023-08-06T01:12:40;18.10;99.90
16643;DHT22;8435;52.184;5.406;2023-08-06T01:15:18;18.10;99.90
16643;DHT22;8435;52.184;5.406;2023-08-06T01:17:46;18.20;99.90
16643;DHT22;8435;52.184;5.406;2023-08-06T01:20:14;18.10;99.90
16643;DHT22;8435;52.184;5.406;2023-08-06T01:22:42;18.10;99.90
16643;DHT22;8435;52.184;5.406;2023-08-06T01:25:09;18.10;99.90
16643;DHT22;8435;52.184;5.406;2023-08-06T01:27:43;18.20;99.90
16643;DHT22;8435;52.184;5.406;2023-08-06T01:30:13;18.10;99.90
16643;DHT22;8435;52.184;5.406;2023-08-06T01:32:44;18.10;99.90
16643;DHT22;8435;52.184;5.406;2023-08-06T01:35:13;18.10;99.90
16643;DHT22;8435;52.184;5.406;2023-08-06T01:37:42;18.10;99.90
16643;DHT22;8435;52.184;5.406;2023-08-06T01:40:11;18.10;99.90
16643;DHT22;8435;52.184;5.406;2023-08-06T01:42:41;18.10;99.90
16643;DHT22;8435;52.184;5.406;2023-08-06T01:45:09;18.10;99.90
16643;DHT22;8435;52.184;5.406;2023-08-06T01:47:36;18.10;99.90
16643;DHT22;8435;52.184;5.406;2023-08-06T01:50:05;18.10;99.90
16643;DHT22;8435;52.184;5.406;2023-08-06T01:52:32;18.10;99.90
16643;DHT22;8435;52.184;5.406;2023-08-06T01:55:01;18.10;99.90
16643;DHT22;8435;52.184;5.406;2023-08-06T01:57:28;18.10;99.90
16643;DHT22;8435;52.184;5.406;2023-08-06T01:59:55;18.00;99.90
16643;DHT22;8435;52.184;5.406;2023-08-06T02:02:22;18.00;99.90
16643;DHT22;8435;52.184;5.406;2023-08-06T02:04:49;18.00;99.90
16643;DHT22;8435;52.184;5.406;2023-08-06T02:07:16;18.00;99.90
16643;DHT22;8435;52.184;5.406;2023-08-06T02:09:42;18.00;99.90
16643;DHT22;8435;52.184;5.406;2023-08-06T02:12:14;18.00;99.90
16643;DHT22;8435;52.184;5.406;2023-08-06T02:14:40;18.00;99.90
16643;DHT22;8435;52.184;5.406;2023-08-06T02:17:07;18.00;99.90
16643;DHT22;8435;52.184;5.406;2023-08-06T02:19:34;18.00;99.90
16643;DHT22;8435;52.184;5.406;2023-08-06T02:22:01;18.00;99.90
16643;DHT22;8435;52.184;5.406;2023-08-06T02:24:28;18.00;99.90
16643;DHT22;8435;52.184;5.406;2023-08-06T02:26:55;18.00;99.90
16643;DHT22;8435;52.184;5.406;2023-08-06T02:29:23;18.00;99.90
16643;DHT22;8435;52.184;5.406;2023-08-06T02:31:50;18.10;99.90
16643;DHT22;8435;52.184;5.406;2023-08-06T02:34:17;18.10;99.90
16643;DHT22;8435;52.184;5.406;2023-08-06T02:36:44;18.10;99.90
16643;DHT22;8435;52.184;5.406;2023-08-06T02:39:12;18.10;99.90
16643;DHT22;8435;52.184;5.406;2023-08-06T02:41:39;18.10;99.90
16643;DHT22;8435;52.184;5.406;2023-08-06T02:44:07;18.10;99.90
16643;DHT22;8435;52.184;5.406;2023-08-06T02:46:35;18.10;99.90
16643;DHT22;8435;52.184;5.406;2023-08-06T02:49:02;18.10;99.90
16643;DHT22;8435;52.184;5.406;2023-08-06T02:51:29;18.10;99.90
16643;DHT22;8435;52.184;5.406;2023-08-06T02:53:56;18.00;99.90
16643;DHT22;8435;52.184;5.406;2023-08-06T02:56:22;18.10;99.90
16643;DHT22;8435;52.184;5.406;2023-08-06T02:58:49;18.00;99.90
16643;DHT22;8435;52.184;5.406;2023-08-06T03:01:16;18.00;99.90
16643;DHT22;8435;52.184;5.406;2023-08-06T03:03:46;18.00;99.90
16643;DHT22;8435;52.184;5.406;2023-08-06T03:06:13;18.00;99.90
16643;DHT22;8435;52.184;5.406;2023-08-06T03:08:40;18.00;99.90
16643;DHT22;8435;52.184;5.406;2023-08-06T03:11:07;17.90;99.90
16643;DHT22;8435;52.184;5.406;2023-08-06T03:13:34;17.90;99.90
16643;DHT22;8435;52.184;5.406;2023-08-06T03:16:03;17.90;99.90
16643;DHT22;8435;52.184;5.406;2023-08-06T03:18:29;17.90;99.90
16643;DHT22;8435;52.184;5.406;2023-08-06T03:20:57;17.90;99.90
16643;DHT22;8435;52.184;5.406;2023-08-06T03:23:26;17.90;99.90
16643;DHT22;8435;52.184;5.406;2023-08-06T03:25:53;17.90;99.90
16643;DHT22;8435;52.184;5.406;2023-08-06T03:28:20;17.90;99.90
16643;DHT22;8435;52.184;5.406;2023-08-06T03:30:47;17.90;99.90
16643;DHT22;8435;52.184;5.406;2023-08-06T03:33:14;17.80;99.90
16643;DHT22;8435;52.184;5.406;2023-08-06T03:35:41;17.90;99.90
16643;DHT22;8435;52.184;5.406;2023-08-06T03:38:09;17.80;99.90
16643;DHT22;8435;52.184;5.406;2023-08-06T03:40:36;17.80;99.90
16643;DHT22;8435;52.184;5.406;2023-08-06T03:43:05;17.80;99.90
16643;DHT22;8435;52.184;5.406;2023-08-06T03:45:33;17.80;99.90
16643;DHT22;8435;52.184;5.406;2023-08-06T03:48:00;17.80;99.90
16643;DHT22;8435;52.184;5.406;2023-08-06T03:50:27;17.80;99.90
16643;DHT22;8435;52.184;5.406;2023-08-06T03:52:54;17.80;99.90
16643;DHT22;8435;52.184;5.406;2023-08-06T03:55:22;17.80;99.90
16643;DHT22;8435;52.184;5.406;2023-08-06T03:57:49;17.80;99.90
16643;DHT22;8435;52.184;5.406;2023-08-06T04:00:16;17.80;99.90
16643;DHT22;8435;52.184;5.406;2023-08-06T04:02:43;17.80;99.90
16643;DHT22;8435;52.184;5.406;2023-08-06T04:05:13;17.90;99.90
16643;DHT22;8435;52.184;5.406;2023-08-06T04:07:40;17.90;99.90
16643;DHT22;8435;52.184;5.406;2023-08-06T04:10:07;17.90;99.90
16643;DHT22;8435;52.184;5.406;2023-08-06T04:12:35;17.90;99.90
16643;DHT22;8435;52.184;5.406;2023-08-06T04:15:06;17.90;99.90
16643;DHT22;8435;52.184;5.406;2023-08-06T04:17:33;17.90;99.90
16643;DHT22;8435;52.184;5.406;2023-08-06T04:20:00;17.90;99.90
16643;DHT22;8435;52.184;5.406;2023-08-06T04:22:27;17.90;99.90
16643;DHT22;8435;52.184;5.406;2023-08-06T04:24:54;17.90;99.90
16643;DHT22;8435;52.184;5.406;2023-08-06T04:27:21;17.90;99.90
16643;DHT22;8435;52.184;5.406;2023-08-06T04:29:49;18.00;99.90
16643;DHT22;8435;52.184;5.406;2023-08-06T04:32:18;18.00;99.90
16643;DHT22;8435;52.184;5.406;2023-08-06T04:34:45;18.00;99.90
16643;DHT22;8435;52.184;5.406;2023-08-06T04:37:15;18.00;99.90
16643;DHT22;8435;52.184;5.406;2023-08-06T04:39:44;18.00;99.90
16643;DHT22;8435;52.184;5.406;2023-08-06T04:42:10;18.00;99.90
16643;DHT22;8435;52.184;5.406;2023-08-06T04:44:37;18.00;99.90
16643;DHT22;8435;52.184;5.406;2023-08-06T04:47:05;18.00;99.90
16643;DHT22;8435;52.184;5.406;2023-08-06T04:49:32;18.10;99.90
16643;DHT22;8435;52.184;5.406;2023-08-06T04:51:59;18.10;99.90
16643;DHT22;8435;52.184;5.406;2023-08-06T04:54:26;18.10;99.90
16643;DHT22;8435;52.184;5.406;2023-08-06T04:56:53;18.10;99.90
16643;DHT22;8435;52.184;5.406;2023-08-06T04:59:20;18.10;99.90
16643;DHT22;8435;52.184;5.406;2023-08-06T05:01:49;18.20;99.90
16643;DHT22;8435;52.184;5.406;2023-08-06T05:04:18;18.20;99.90
16643;DHT22;8435;52.184;5.406;2023-08-06T05:06:44;18.20;99.90
16643;DHT22;8435;52.184;5.406;2023-08-06T05:09:11;18.20;99.90
16643;DHT22;8435;52.184;5.406;2023-08-06T05:11:38;18.30;99.90
16643;DHT22;8435;52.184;5.406;2023-08-06T05:14:05;18.30;99.90
16643;DHT22;8435;52.184;5.406;2023-08-06T05:16:32;18.30;99.90
16643;DHT22;8435;52.184;5.406;2023-08-06T05:18:59;18.30;99.90
16643;DHT22;8435;52.184;5.406;2023-08-06T05:21:27;18.40;99.90
16643;DHT22;8435;52.184;5.406;2023-08-06T05:23:54;18.40;99.90
16643;DHT22;8435;52.184;5.406;2023-08-06T05:26:21;18.40;99.90
16643;DHT22;8435;52.184;5.406;2023-08-06T05:28:48;18.40;99.90
16643;DHT22;8435;52.184;5.406;2023-08-06T05:31:15;18.40;99.90
16643;DHT22;8435;52.184;5.406;2023-08-06T05:33:42;18.50;99.90
16643;DHT22;8435;52.184;5.406;2023-08-06T05:36:09;18.50;99.90
16643;DHT22;8435;52.184;5.406;2023-08-06T05:38:37;18.50;99.90
16643;DHT22;8435;52.184;5.406;2023-08-06T05:41:04;18.50;99.90
16643;DHT22;8435;52.184;5.406;2023-08-06T05:43:30;18.60;99.90
16643;DHT22;8435;52.184;5.406;2023-08-06T05:45:57;18.60;99.90
16643;DHT22;8435;52.184;5.406;2023-08-06T05:48:24;18.50;99.90
16643;DHT22;8435;52.184;5.406;2023-08-06T05:50:53;18.60;99.90
16643;DHT22;8435;52.184;5.406;2023-08-06T05:53:20;18.60;99.90
16643;DHT22;8435;52.184;5.406;2023-08-06T05:55:48;18.60;99.90
16643;DHT22;8435;52.184;5.406;2023-08-06T05:58:15;18.60;99.90
16643;DHT22;8435;52.184;5.406;2023-08-06T06:00:42;18.50;99.90
16643;DHT22;8435;52.184;5.406;2023-08-06T06:03:09;18.60;99.90
16643;DHT22;8435;52.184;5.406;2023-08-06T06:05:40;18.60;99.90
16643;DHT22;8435;52.184;5.406;2023-08-06T06:08:07;18.60;99.90
16643;DHT22;8435;52.184;5.406;2023-08-06T06:10:37;18.60;99.90
16643;DHT22;8435;52.184;5.406;2023-08-06T06:13:05;18.60;99.90
16643;DHT22;8435;52.184;5.406;2023-08-06T06:15:32;18.60;99.90
16643;DHT22;8435;52.184;5.406;2023-08-06T06:17:59;18.60;99.90
16643;DHT22;8435;52.184;5.406;2023-08-06T06:20:25;18.60;99.90
16643;DHT22;8435;52.184;5.406;2023-08-06T06:22:52;18.60;99.90
16643;DHT22;8435;52.184;5.406;2023-08-06T06:25:19;18.60;99.90
16643;DHT22;8435;52.184;5.406;2023-08-06T06:27:46;18.60;99.90
16643;DHT22;8435;52.184;5.406;2023-08-06T06:30:14;18.60;99.90
16643;DHT22;8435;52.184;5.406;2023-08-06T06:32:44;18.60;99.90
16643;DHT22;8435;52.184;5.406;2023-08-06T06:35:13;18.60;99.90
16643;DHT22;8435;52.184;5.406;2023-08-06T06:37:43;18.60;99.90
16643;DHT22;8435;52.184;5.406;2023-08-06T06:40:12;18.60;99.90
16643;DHT22;8435;52.184;5.406;2023-08-06T06:42:41;18.60;99.90
16643;DHT22;8435;52.184;5.406;2023-08-06T06:45:09;18.60;99.90
16643;DHT22;8435;52.184;5.406;2023-08-06T06:47:37;18.60;99.90
16643;DHT22;8435;52.184;5.406;2023-08-06T06:50:05;18.70;99.90
16643;DHT22;8435;52.184;5.406;2023-08-06T06:52:32;18.70;99.90
16643;DHT22;8435;52.184;5.406;2023-08-06T06:55:00;18.70;99.90
16643;DHT22;8435;52.184;5.406;2023-08-06T06:57:27;18.70;99.90
16643;DHT22;8435;52.184;5.406;2023-08-06T06:59:54;18.70;99.90
16643;DHT22;8435;52.184;5.406;2023-08-06T07:02:21;18.70;99.90
16643;DHT22;8435;52.184;5.406;2023-08-06T07:04:50;18.70;99.90
16643;DHT22;8435;52.184;5.406;2023-08-06T07:07:16;18.70;99.90
16643;DHT22;8435;52.184;5.406;2023-08-06T07:09:46;18.70;99.90
16643;DHT22;8435;52.184;5.406;2023-08-06T07:12:13;18.70;99.90
16643;DHT22;8435;52.184;5.406;2023-08-06T07:14:40;18.70;99.90
16643;DHT22;8435;52.184;5.406;2023-08-06T07:17:07;18.80;99.90
16643;DHT22;8435;52.184;5.406;2023-08-06T07:19:33;18.80;99.90
16643;DHT22;8435;52.184;5.406;2023-08-06T07:22:02;18.90;99.90
16643;DHT22;8435;52.184;5.406;2023-08-06T07:24:29;18.90;99.90
16643;DHT22;8435;52.184;5.406;2023-08-06T07:26:55;18.90;99.90
16643;DHT22;8435;52.184;5.406;2023-08-06T07:29:22;19.00;99.90
16643;DHT22;8435;52.184;5.406;2023-08-06T07:31:52;19.00;99.90
16643;DHT22;8435;52.184;5.406;2023-08-06T07:34:19;19.00;99.90
16643;DHT22;8435;52.184;5.406;2023-08-06T07:36:46;19.00;99.90
16643;DHT22;8435;52.184;5.406;2023-08-06T07:39:14;19.00;99.90
16643;DHT22;8435;52.184;5.406;2023-08-06T07:41:42;19.10;99.90
16643;DHT22;8435;52.184;5.406;2023-08-06T07:44:11;19.10;99.90
16643;DHT22;8435;52.184;5.406;2023-08-06T07:46:38;19.10;99.90
16643;DHT22;8435;52.184;5.406;2023-08-06T07:49:22;19.10;99.90
16643;DHT22;8435;52.184;5.406;2023-08-06T07:51:48;19.20;99.90
16643;DHT22;8435;52.184;5.406;2023-08-06T07:54:18;19.20;99.90
16643;DHT22;8435;52.184;5.406;2023-08-06T07:56:45;19.20;99.90
16643;DHT22;8435;52.184;5.406;2023-08-06T07:59:12;19.20;99.90
16643;DHT22;8435;52.184;5.406;2023-08-06T08:01:39;19.20;99.90
16643;DHT22;8435;52.184;5.406;2023-08-06T08:04:05;19.20;99.90
16643;DHT22;8435;52.184;5.406;2023-08-06T08:06:33;19.20;99.90
16643;DHT22;8435;52.184;5.406;2023-08-06T08:09:00;19.30;99.90
16643;DHT22;8435;52.184;5.406;2023-08-06T08:11:28;19.30;99.90
16643;DHT22;8435;52.184;5.406;2023-08-06T08:13:55;19.30;99.90
16643;DHT22;8435;52.184;5.406;2023-08-06T08:16:25;19.30;99.90
16643;DHT22;8435;52.184;5.406;2023-08-06T08:18:52;19.30;99.90
16643;DHT22;8435;52.184;5.406;2023-08-06T08:21:19;19.40;99.90
16643;DHT22;8435;52.184;5.406;2023-08-06T08:23:46;19.30;99.90
16643;DHT22;8435;52.184;5.406;2023-08-06T08:26:13;19.30;99.90
16643;DHT22;8435;52.184;5.406;2023-08-06T08:28:41;19.40;99.90
16643;DHT22;8435;52.184;5.406;2023-08-06T08:31:08;19.40;99.90
16643;DHT22;8435;52.184;5.406;2023-08-06T08:33:35;19.40;99.90
16643;DHT22;8435;52.184;5.406;2023-08-06T08:36:02;19.40;99.90
16643;DHT22;8435;52.184;5.406;2023-08-06T08:38:29;19.40;99.90
16643;DHT22;8435;52.184;5.406;2023-08-06T08:40:56;19.30;99.90
16643;DHT22;8435;52.184;5.406;2023-08-06T08:43:24;19.30;99.90
16643;DHT22;8435;52.184;5.406;2023-08-06T08:45:53;19.20;99.90
16643;DHT22;8435;52.184;5.406;2023-08-06T08:48:21;19.10;99.90
16643;DHT22;8435;52.184;5.406;2023-08-06T08:50:49;19.10;99.90
16643;DHT22;8435;52.184;5.406;2023-08-06T08:53:17;18.90;99.90
16643;DHT22;8435;52.184;5.406;2023-08-06T08:55:46;18.80;99.90
16643;DHT22;8435;52.184;5.406;2023-08-06T08:58:14;18.70;99.90
16643;DHT22;8435;52.184;5.406;2023-08-06T09:00:42;18.60;99.90
16643;DHT22;8435;52.184;5.406;2023-08-06T09:03:10;18.50;99.90
16643;DHT22;8435;52.184;5.406;2023-08-06T09:05:40;18.30;99.90
16643;DHT22;8435;52.184;5.406;2023-08-06T09:08:12;18.20;99.90
16643;DHT22;8435;52.184;5.406;2023-08-06T09:10:43;18.10;99.90
16643;DHT22;8435;52.184;5.406;2023-08-06T09:13:10;18.00;99.90
16643;DHT22;8435;52.184;5.406;2023-08-06T09:15:38;17.90;99.90
16643;DHT22;8435;52.184;5.406;2023-08-06T09:18:11;17.90;99.90
16643;DHT22;8435;52.184;5.406;2023-08-06T09:20:38;17.90;99.90
16643;DHT22;8435;52.184;5.406;2023-08-06T09:23:07;17.80;99.90
16643;DHT22;8435;52.184;5.406;2023-08-06T09:25:38;17.70;99.90
16643;DHT22;8435;52.184;5.406;2023-08-06T09:28:06;17.70;99.90
16643;DHT22;8435;52.184;5.406;2023-08-06T09:30:35;17.70;99.90
16643;DHT22;8435;52.184;5.406;2023-08-06T09:33:02;17.60;99.90
16643;DHT22;8435;52.184;5.406;2023-08-06T09:35:36;17.60;99.90
16643;DHT22;8435;52.184;5.406;2023-08-06T09:38:06;17.60;99.90
16643;DHT22;8435;52.184;5.406;2023-08-06T09:40:34;17.60;99.90
16643;DHT22;8435;52.184;5.406;2023-08-06T09:43:01;17.60;99.90
16643;DHT22;8435;52.184;5.406;2023-08-06T09:45:31;17.60;99.90
16643;DHT22;8435;52.184;5.406;2023-08-06T09:47:58;17.60;99.90
16643;DHT22;8435;52.184;5.406;2023-08-06T09:50:29;17.60;99.90
16643;DHT22;8435;52.184;5.406;2023-08-06T09:52:59;17.60;99.90
16643;DHT22;8435;52.184;5.406;2023-08-06T09:55:26;17.70;99.90
16643;DHT22;8435;52.184;5.406;2023-08-06T09:57:53;17.70;99.90
16643;DHT22;8435;52.184;5.406;2023-08-06T10:00:21;17.70;99.90
16643;DHT22;8435;52.184;5.406;2023-08-06T10:02:49;17.70;99.90
16643;DHT22;8435;52.184;5.406;2023-08-06T10:05:21;17.70;99.90
16643;DHT22;8435;52.184;5.406;2023-08-06T10:07:48;17.80;99.90
16643;DHT22;8435;52.184;5.406;2023-08-06T10:10:17;17.80;99.90
16643;DHT22;8435;52.184;5.406;2023-08-06T10:12:47;17.80;99.90
16643;DHT22;8435;52.184;5.406;2023-08-06T10:15:20;17.80;99.90
16643;DHT22;8435;52.184;5.406;2023-08-06T10:17:52;17.90;99.90
16643;DHT22;8435;52.184;5.406;2023-08-06T10:20:20;17.90;99.90
16643;DHT22;8435;52.184;5.406;2023-08-06T10:23:00;17.90;99.90
16643;DHT22;8435;52.184;5.406;2023-08-06T10:25:30;18.00;99.90
16643;DHT22;8435;52.184;5.406;2023-08-06T10:27:58;18.00;99.90
16643;DHT22;8435;52.184;5.406;2023-08-06T10:30:25;18.00;99.90
16643;DHT22;8435;52.184;5.406;2023-08-06T10:32:54;18.00;99.90
16643;DHT22;8435;52.184;5.406;2023-08-06T10:35:35;18.00;99.90
16643;DHT22;8435;52.184;5.406;2023-08-06T10:38:07;18.10;99.90
16643;DHT22;8435;52.184;5.406;2023-08-06T10:40:35;18.10;99.90
16643;DHT22;8435;52.184;5.406;2023-08-06T10:43:05;18.10;99.90
16643;DHT22;8435;52.184;5.406;2023-08-06T10:45:35;18.10;99.90
16643;DHT22;8435;52.184;5.406;2023-08-06T10:48:02;18.10;99.90
16643;DHT22;8435;52.184;5.406;2023-08-06T10:50:30;18.10;99.90
16643;DHT22;8435;52.184;5.406;2023-08-06T10:52:57;18.10;99.90
16643;DHT22;8435;52.184;5.406;2023-08-06T10:55:25;18.10;99.90
16643;DHT22;8435;52.184;5.406;2023-08-06T10:57:54;18.10;99.90
16643;DHT22;8435;52.184;5.406;2023-08-06T11:00:22;18.10;99.90
16643;DHT22;8435;52.184;5.406;2023-08-06T11:02:49;18.10;99.90
16643;DHT22;8435;52.184;5.406;2023-08-06T11:05:16;18.10;99.90
16643;DHT22;8435;52.184;5.406;2023-08-06T11:07:44;18.10;99.90
16643;DHT22;8435;52.184;5.406;2023-08-06T11:10:12;18.10;99.90
16643;DHT22;8435;52.184;5.406;2023-08-06T11:12:40;18.10;99.90
16643;DHT22;8435;52.184;5.406;2023-08-06T11:15:09;18.10;99.90
16643;DHT22;8435;52.184;5.406;2023-08-06T11:17:37;18.10;99.90
16643;DHT22;8435;52.184;5.406;2023-08-06T11:20:06;18.10;99.90
16643;DHT22;8435;52.184;5.406;2023-08-06T11:22:33;18.10;99.90
16643;DHT22;8435;52.184;5.406;2023-08-06T11:25:00;18.10;99.90
16643;DHT22;8435;52.184;5.406;2023-08-06T11:27:27;18.10;99.90
16643;DHT22;8435;52.184;5.406;2023-08-06T11:29:55;18.00;99.90
16643;DHT22;8435;52.184;5.406;2023-08-06T11:32:23;18.00;99.90
16643;DHT22;8435;52.184;5.406;2023-08-06T11:34:53;18.00;99.90
16643;DHT22;8435;52.184;5.406;2023-08-06T11:37:21;18.00;99.90
16643;DHT22;8435;52.184;5.406;2023-08-06T11:39:50;17.90;99.90
16643;DHT22;8435;52.184;5.406;2023-08-06T11:42:16;17.90;99.90
16643;DHT22;8435;52.184;5.406;2023-08-06T11:44:43;17.90;99.90
16643;DHT22;8435;52.184;5.406;2023-08-06T11:47:14;17.90;99.90
16643;DHT22;8435;52.184;5.406;2023-08-06T11:49:44;17.90;99.90
16643;DHT22;8435;52.184;5.406;2023-08-06T11:52:14;17.80;99.90
16643;DHT22;8435;52.184;5.406;2023-08-06T11:54:44;17.80;99.90
16643;DHT22;8435;52.184;5.406;2023-08-06T11:57:14;17.80;99.90
16643;DHT22;8435;52.184;5.406;2023-08-06T11:59:41;17.70;99.90
16643;DHT22;8435;52.184;5.406;2023-08-06T12:02:09;17.70;99.90
16643;DHT22;8435;52.184;5.406;2023-08-06T12:05:11;17.70;99.90
16643;DHT22;8435;52.184;5.406;2023-08-06T12:07:39;17.70;99.90
16643;DHT22;8435;52.184;5.406;2023-08-06T12:10:07;17.70;99.90
16643;DHT22;8435;52.184;5.406;2023-08-06T12:12:34;17.60;99.90
16643;DHT22;8435;52.184;5.406;2023-08-06T12:15:03;17.60;99.90
16643;DHT22;8435;52.184;5.406;2023-08-06T12:17:30;17.60;99.90
16643;DHT22;8435;52.184;5.406;2023-08-06T12:19:57;17.60;99.90
16643;DHT22;8435;52.184;5.406;2023-08-06T12:22:25;17.60;99.90
16643;DHT22;8435;52.184;5.406;2023-08-06T12:24:52;17.60;99.90
16643;DHT22;8435;52.184;5.406;2023-08-06T12:27:19;17.70;99.90
16643;DHT22;8435;52.184;5.406;2023-08-06T12:29:47;17.70;99.90
16643;DHT22;8435;52.184;5.406;2023-08-06T12:32:18;17.70;99.90
16643;DHT22;8435;52.184;5.406;2023-08-06T12:34:45;17.70;99.90
16643;DHT22;8435;52.184;5.406;2023-08-06T12:37:12;17.80;99.90
16643;DHT22;8435;52.184;5.406;2023-08-06T12:39:42;17.80;99.90
16643;DHT22;8435;52.184;5.406;2023-08-06T12:42:09;17.90;99.90
16643;DHT22;8435;52.184;5.406;2023-08-06T12:44:36;17.90;99.90
16643;DHT22;8435;52.184;5.406;2023-08-06T12:47:03;17.90;99.90
16643;DHT22;8435;52.184;5.406;2023-08-06T12:49:30;17.90;99.90
16643;DHT22;8435;52.184;5.406;2023-08-06T12:51:58;18.00;99.90
16643;DHT22;8435;52.184;5.406;2023-08-06T12:54:26;18.00;99.90
16643;DHT22;8435;52.184;5.406;2023-08-06T12:56:57;18.00;99.90
16643;DHT22;8435;52.184;5.406;2023-08-06T12:59:23;18.00;99.90
16643;DHT22;8435;52.184;5.406;2023-08-06T13:01:50;18.00;99.90
16643;DHT22;8435;52.184;5.406;2023-08-06T13:04:17;18.10;99.90
16643;DHT22;8435;52.184;5.406;2023-08-06T13:06:44;18.10;99.90
16643;DHT22;8435;52.184;5.406;2023-08-06T13:09:11;18.10;99.90
16643;DHT22;8435;52.184;5.406;2023-08-06T13:11:39;18.10;99.90
16643;DHT22;8435;52.184;5.406;2023-08-06T13:14:09;18.20;99.90
16643;DHT22;8435;52.184;5.406;2023-08-06T13:16:37;18.20;99.90
16643;DHT22;8435;52.184;5.406;2023-08-06T13:19:05;18.20;99.90
16643;DHT22;8435;52.184;5.406;2023-08-06T13:21:34;18.20;99.90
16643;DHT22;8435;52.184;5.406;2023-08-06T13:24:01;18.30;99.90
16643;DHT22;8435;52.184;5.406;2023-08-06T13:26:29;18.30;99.90
16643;DHT22;8435;52.184;5.406;2023-08-06T13:28:57;18.30;99.90
16643;DHT22;8435;52.184;5.406;2023-08-06T13:31:26;18.30;99.90
16643;DHT22;8435;52.184;5.406;2023-08-06T13:33:54;18.30;99.90
16643;DHT22;8435;52.184;5.406;2023-08-06T13:36:22;18.40;99.90
16643;DHT22;8435;52.184;5.406;2023-08-06T13:38:49;18.40;99.90
16643;DHT22;8435;52.184;5.406;2023-08-06T13:41:16;18.40;99.90
16643;DHT22;8435;52.184;5.406;2023-08-06T13:43:43;18.50;99.90
16643;DHT22;8435;52.184;5.406;2023-08-06T13:46:11;18.50;99.90
16643;DHT22;8435;52.184;5.406;2023-08-06T13:48:43;18.50;99.90
16643;DHT22;8435;52.184;5.406;2023-08-06T13:51:11;18.50;99.90
16643;DHT22;8435;52.184;5.406;2023-08-06T13:53:40;18.60;99.90
16643;DHT22;8435;52.184;5.406;2023-08-06T13:56:09;18.60;99.90
16643;DHT22;8435;52.184;5.406;2023-08-06T13:58:37;18.60;99.90
16643;DHT22;8435;52.184;5.406;2023-08-06T14:01:05;18.60;99.90
16643;DHT22;8435;52.184;5.406;2023-08-06T14:03:33;18.70;99.90
16643;DHT22;8435;52.184;5.406;2023-08-06T14:06:02;18.70;99.90
16643;DHT22;8435;52.184;5.406;2023-08-06T14:08:28;18.70;99.90
16643;DHT22;8435;52.184;5.406;2023-08-06T14:10:55;18.80;99.90
16643;DHT22;8435;52.184;5.406;2023-08-06T14:13:22;18.80;99.90
16643;DHT22;8435;52.184;5.406;2023-08-06T14:15:49;18.80;99.90
16643;DHT22;8435;52.184;5.406;2023-08-06T14:18:16;18.80;99.90
16643;DHT22;8435;52.184;5.406;2023-08-06T14:20:44;18.90;99.90
16643;DHT22;8435;52.184;5.406;2023-08-06T14:23:12;18.90;99.90
16643;DHT22;8435;52.184;5.406;2023-08-06T14:25:39;18.90;99.90
16643;DHT22;8435;52.184;5.406;2023-08-06T14:28:09;19.00;99.90
16643;DHT22;8435;52.184;5.406;2023-08-06T14:30:38;19.00;99.90
16643;DHT22;8435;52.184;5.406;2023-08-06T14:33:05;19.00;99.90
16643;DHT22;8435;52.184;5.406;2023-08-06T14:35:32;19.10;99.90
16643;DHT22;8435;52.184;5.406;2023-08-06T14:37:59;19.10;99.90
16643;DHT22;8435;52.184;5.406;2023-08-06T14:40:27;19.10;99.90
16643;DHT22;8435;52.184;5.406;2023-08-06T14:42:59;19.10;99.90
16643;DHT22;8435;52.184;5.406;2023-08-06T14:45:27;19.10;99.90
16643;DHT22;8435;52.184;5.406;2023-08-06T14:47:56;19.10;99.90
16643;DHT22;8435;52.184;5.406;2023-08-06T14:50:23;19.10;99.90
16643;DHT22;8435;52.184;5.406;2023-08-06T14:52:53;19.20;99.90
16643;DHT22;8435;52.184;5.406;2023-08-06T14:55:27;19.20;99.90
16643;DHT22;8435;52.184;5.406;2023-08-06T14:57:54;19.20;99.90
16643;DHT22;8435;52.184;5.406;2023-08-06T15:00:20;19.20;99.90
16643;DHT22;8435;52.184;5.406;2023-08-06T15:02:47;19.30;99.90
16643;DHT22;8435;52.184;5.406;2023-08-06T15:05:14;19.30;99.90
16643;DHT22;8435;52.184;5.406;2023-08-06T15:07:41;19.30;99.90
16643;DHT22;8435;52.184;5.406;2023-08-06T15:10:08;19.30;99.90
16643;DHT22;8435;52.184;5.406;2023-08-06T15:12:36;19.30;99.90
16643;DHT22;8435;52.184;5.406;2023-08-06T15:15:06;19.20;99.90
16643;DHT22;8435;52.184;5.406;2023-08-06T15:17:33;19.20;99.90
16643;DHT22;8435;52.184;5.406;2023-08-06T15:20:03;19.20;99.90
16643;DHT22;8435;52.184;5.406;2023-08-06T15:22:30;19.20;99.90
16643;DHT22;8435;52.184;5.406;2023-08-06T15:24:59;19.10;99.90
16643;DHT22;8435;52.184;5.406;2023-08-06T15:27:26;19.10;99.90
16643;DHT22;8435;52.184;5.406;2023-08-06T15:29:56;19.10;99.90
16643;DHT22;8435;52.184;5.406;2023-08-06T15:32:23;19.00;99.90
16643;DHT22;8435;52.184;5.406;2023-08-06T15:34:50;19.00;99.90
16643;DHT22;8435;52.184;5.406;2023-08-06T15:37:17;19.00;99.90
16643;DHT22;8435;52.184;5.406;2023-08-06T15:39:44;18.90;99.90
16643;DHT22;8435;52.184;5.406;2023-08-06T15:42:11;18.90;99.90
16643;DHT22;8435;52.184;5.406;2023-08-06T15:44:38;18.80;99.90
16643;DHT22;8435;52.184;5.406;2023-08-06T15:47:06;18.90;99.90
16643;DHT22;8435;52.184;5.406;2023-08-06T15:49:33;18.80;99.90